Time;durP1;ratioP1;P1;durP2;ratioP2;P2;SDS_P1;SDS_P2;PMS_P1;PMS_P2;Temp;Humidity;BMP_temperature;BMP_pressure;BME280_temperature;BME280_humidity;BME280_pressure;Samples;Min_cycle;Max_cycle;Signal;HPM_P1;HPM_P2
2021/12/03 00:00:58;;;;;;;11.53;5.87;;;;;;;-0.20;83.39;101005.25;5070951;28;20437;-84
2021/12/03 00:03:24;;;;;;;11.33;5.97;;;;;;;-0.17;83.56;101010.41;5069166;28;20372;-84
2021/12/03 00:05:52;;;;;;;13.13;6.23;;;;;;;-0.17;83.84;101012.13;5070678;28;20036;-84
2021/12/03 00:08:18;;;;;;;9.77;6.20;;;;;;;-0.18;83.84;101013.81;5071711;28;20113;-84
2021/12/03 00:10:48;;;;;;;12.00;6.03;;;;;;;-0.16;84.01;101024.06;5072200;28;20459;-84
2021/12/03 00:13:14;;;;;;;11.97;6.30;;;;;;;-0.16;83.70;101013.84;5071964;28;20036;-84
2021/12/03 00:15:39;;;;;;;11.53;5.90;;;;;;;-0.16;84.29;101009.56;5072133;28;20138;-83
2021/12/03 00:18:04;;;;;;;10.27;6.50;;;;;;;-0.16;84.24;101007.03;5070549;28;20032;-84
2021/12/03 00:20:34;;;;;;;12.57;7.00;;;;;;;-0.16;84.59;101009.56;5071669;28;20021;-84
2021/12/03 00:22:59;;;;;;;12.40;7.37;;;;;;;-0.13;84.53;101015.59;5070188;28;20129;-84
2021/12/03 00:25:25;;;;;;;12.23;7.70;;;;;;;-0.15;84.37;101020.69;5070832;28;20029;-84
2021/12/03 00:27:51;;;;;;;13.83;7.90;;;;;;;-0.14;84.79;101021.53;5072236;28;20097;-84
2021/12/03 00:30:17;;;;;;;13.70;8.53;;;;;;;-0.14;84.67;101024.09;5071594;28;20020;-84
2021/12/03 00:32:44;;;;;;;12.73;8.40;;;;;;;-0.14;84.46;101013.88;5072475;28;20487;-84
2021/12/03 00:35:10;;;;;;;15.77;8.87;;;;;;;-0.17;84.72;101012.97;5069515;28;20729;-84
2021/12/03 00:37:37;;;;;;;14.80;9.07;;;;;;;-0.16;84.28;101018.97;5070592;28;20035;-84
2021/12/03 00:40:05;;;;;;;16.60;9.80;;;;;;;-0.16;84.48;101012.13;5069317;28;20035;-84
2021/12/03 00:42:32;;;;;;;18.97;9.77;;;;;;;-0.13;84.46;101025.81;5070652;28;20017;-84
2021/12/03 00:44:57;;;;;;;19.37;10.37;;;;;;;-0.14;84.61;101018.97;5071125;28;20064;-84
2021/12/03 00:47:24;;;;;;;17.07;11.30;;;;;;;-0.13;85.05;101020.72;5068181;28;20546;-84
2021/12/03 00:49:50;;;;;;;17.50;11.23;;;;;;;-0.17;84.86;101024.91;5069557;28;20032;-84
2021/12/03 00:52:16;;;;;;;20.47;12.87;;;;;;;-0.13;85.04;101023.25;5071249;28;20016;-84
2021/12/03 00:54:42;;;;;;;19.47;13.00;;;;;;;-0.13;85.58;101031.81;5070158;28;20093;-83
2021/12/03 00:57:07;;;;;;;21.90;13.67;;;;;;;-0.13;85.67;101019.03;5071772;28;20418;-84
2021/12/03 00:59:34;;;;;;;22.97;14.00;;;;;;;-0.12;85.32;101017.31;5071495;28;20028;-84
2021/12/03 01:02:00;;;;;;;22.10;13.33;;;;;;;-0.13;85.60;101015.59;5067816;28;20012;-84
2021/12/03 01:04:25;;;;;;;21.63;12.90;;;;;;;-0.12;84.89;101014.75;5070802;28;20544;-84
2021/12/03 01:06:51;;;;;;;20.63;13.23;;;;;;;-0.13;85.08;101015.59;5069601;28;20021;-84
2021/12/03 01:09:16;;;;;;;23.03;13.27;;;;;;;-0.15;85.23;101020.69;5071753;28;20410;-84
2021/12/03 01:11:42;;;;;;;22.10;12.83;;;;;;;-0.15;84.78;101020.69;5069384;28;20029;-84
2021/12/03 01:14:08;;;;;;;19.27;13.13;;;;;;;-0.16;85.22;101030.03;5070782;28;20031;-84
2021/12/03 01:16:34;;;;;;;19.73;13.50;;;;;;;-0.17;85.66;101035.97;5069229;28;20112;-84
2021/12/03 01:19:01;;;;;;;23.40;13.60;;;;;;;-0.18;84.85;101031.72;5071166;28;20442;-84
2021/12/03 01:21:26;;;;;;;22.10;13.67;;;;;;;-0.18;85.29;101030.84;5075813;28;20371;-83
2021/12/03 01:23:53;;;;;;;20.37;13.13;;;;;;;-0.18;85.60;101030.84;5069928;28;20494;-84
2021/12/03 01:26:19;;;;;;;24.77;14.30;;;;;;;-0.17;85.97;101030.88;5070382;28;20441;-84
2021/12/03 01:28:46;;;;;;;25.67;14.67;;;;;;;-0.19;85.69;101036.78;5069656;28;20040;-84
2021/12/03 01:31:12;;;;;;;23.77;15.70;;;;;;;-0.21;85.41;101044.44;5068784;28;20480;-84
2021/12/03 01:33:38;;;;;;;25.17;14.77;;;;;;;-0.20;85.50;101035.06;5070844;28;20471;-84
2021/12/03 01:36:04;;;;;;;25.80;15.80;;;;;;;-0.21;85.94;101034.22;5068259;28;20097;-84
2021/12/03 01:38:29;;;;;;;24.97;16.40;;;;;;;-0.20;86.19;101033.38;5070550;28;20021;-84
2021/12/03 01:40:55;;;;;;;26.20;17.77;;;;;;;-0.18;86.70;101041.94;5069864;28;20387;-84
2021/12/03 01:43:23;;;;;;;31.37;18.90;;;;;;;-0.16;86.41;101045.38;5069249;28;20384;-84
2021/12/03 01:45:51;;;;;;;30.60;19.60;;;;;;;-0.13;86.96;101039.50;5071204;28;20441;-84
2021/12/03 01:48:17;;;;;;;32.33;19.90;;;;;;;-0.09;86.96;101027.63;5070106;28;20024;-84
2021/12/03 01:50:44;;;;;;;28.20;19.57;;;;;;;-0.10;86.67;101019.09;5070698;28;20024;-84
2021/12/03 01:53:13;;;;;;;32.77;20.27;;;;;;;-0.11;86.53;101025.03;5077430;28;20201;-84
2021/12/03 01:55:40;;;;;;;29.73;21.43;;;;;;;-0.09;86.36;101022.50;5072864;28;20032;-84
2021/12/03 01:58:06;;;;;;;34.37;20.63;;;;;;;-0.11;86.70;101019.03;5080465;28;20502;-84
2021/12/03 02:00:43;;;;;;;34.40;21.67;;;;;;;-0.13;86.37;101020.72;5069154;28;20028;-84
2021/12/03 02:03:11;;;;;;;29.60;20.10;;;;;;;-0.10;86.66;101026.78;5069008;28;20499;-84
2021/12/03 02:05:37;;;;;;;33.77;21.80;;;;;;;-0.12;86.57;101018.19;5074106;28;20084;-84
2021/12/03 02:08:03;;;;;;;31.53;21.30;;;;;;;-0.10;86.42;101015.66;5072934;28;20175;-84
2021/12/03 02:10:29;;;;;;;29.87;20.00;;;;;;;-0.09;86.29;101022.50;5068783;28;20089;-84
2021/12/03 02:12:55;;;;;;;30.03;21.37;;;;;;;-0.06;86.68;101020.03;5074625;28;20134;-84
2021/12/03 02:15:21;;;;;;;31.50;20.80;;;;;;;-0.08;87.04;101016.56;5070376;28;20105;-84
2021/12/03 02:17:46;;;;;;;31.93;20.13;;;;;;;-0.07;86.78;101011.47;5069348;28;20059;-84
2021/12/03 02:20:13;;;;;;;30.33;20.13;;;;;;;-0.06;86.68;101014.91;5071649;28;20115;-84
2021/12/03 02:22:40;;;;;;;28.63;19.70;;;;;;;-0.05;87.01;101024.31;5070675;28;20386;-84
2021/12/03 02:25:08;;;;;;;35.73;20.90;;;;;;;-0.06;86.91;101023.41;5068326;28;20031;-84
2021/12/03 02:27:34;;;;;;;32.03;21.23;;;;;;;-0.04;86.84;101032.00;5073276;28;20097;-84
2021/12/03 02:29:59;;;;;;;30.23;19.77;;;;;;;-0.02;86.20;101030.34;5073214;28;20364;-84
2021/12/03 02:32:25;;;;;;;30.87;20.70;;;;;;;0.01;86.79;101026.97;5068581;28;20047;-84
2021/12/03 02:34:50;;;;;;;38.47;22.97;;;;;;;0.04;86.50;101031.31;5067748;28;20134;-83
2021/12/03 02:37:16;;;;;;;38.70;23.87;;;;;;;0.06;86.95;101035.59;5070310;28;20033;-84
2021/12/03 02:39:41;;;;;;;41.17;26.27;;;;;;;0.06;86.71;101033.06;5068652;28;20056;-84
2021/12/03 02:42:06;;;;;;;42.57;25.33;;;;;;;0.09;86.84;101034.78;5069785;28;20047;-84
2021/12/03 02:44:32;;;;;;;50.37;29.27;;;;;;;0.09;86.87;101033.13;5068237;28;20043;-83
2021/12/03 02:46:57;;;;;;;58.43;32.17;;;;;;;0.12;87.22;101027.19;5069951;28;20242;-84
2021/12/03 02:49:22;;;;;;;61.60;33.00;;;;;;;0.12;87.32;101022.06;5074251;28;20123;-84
2021/12/03 02:51:48;;;;;;;74.97;35.13;;;;;;;0.13;87.05;101019.56;5069190;28;20029;-84
2021/12/03 02:54:13;;;;;;;67.37;35.60;;;;;;;0.16;87.27;101015.34;5077121;28;20089;-83
2021/12/03 02:56:39;;;;;;;82.63;38.17;;;;;;;0.14;87.65;101016.19;5071359;28;20024;-84
2021/12/03 02:59:05;;;;;;;74.57;37.03;;;;;;;0.16;87.63;101016.19;5070382;28;20073;-84
2021/12/03 03:01:31;;;;;;;80.87;38.07;;;;;;;0.17;87.98;101023.03;5068349;28;20108;-83
2021/12/03 03:03:57;;;;;;;84.83;38.40;;;;;;;0.20;87.58;101024.78;5068701;28;20024;-84
2021/12/03 03:06:22;;;;;;;82.77;38.00;;;;;;;0.21;88.06;101021.41;5069950;28;20472;-84
2021/12/03 03:08:48;;;;;;;87.60;41.27;;;;;;;0.22;88.30;101023.13;5068258;28;20041;-84
2021/12/03 03:11:16;;;;;;;75.73;38.67;;;;;;;0.23;87.83;101017.19;5070935;28;20103;-84
2021/12/03 03:13:41;;;;;;;82.43;40.23;;;;;;;0.26;87.96;101014.69;5072505;28;20067;-84
2021/12/03 03:16:07;;;;;;;80.47;39.03;;;;;;;0.23;87.88;101009.50;5072716;28;20056;-84
2021/12/03 03:18:33;;;;;;;79.03;38.80;;;;;;;0.26;88.29;101012.13;5072406;28;20437;-84
2021/12/03 03:21:01;;;;;;;81.57;38.50;;;;;;;0.24;87.95;101001.00;5071994;28;20020;-84
2021/12/03 03:23:27;;;;;;;71.53;36.37;;;;;;;0.27;88.19;100995.94;5073650;28;20093;-84
2021/12/03 03:25:53;;;;;;;69.73;37.23;;;;;;;0.29;88.33;100999.41;5071807;28;20027;-84
2021/12/03 03:28:20;;;;;;;69.97;36.53;;;;;;;0.30;88.22;101011.34;5070586;28;20033;-84
2021/12/03 03:30:47;;;;;;;74.50;36.17;;;;;;;0.32;88.02;101003.69;5070956;28;20444;-84
2021/12/03 03:33:14;;;;;;;66.40;35.63;;;;;;;0.36;87.97;100995.25;5071183;28;20028;-83
2021/12/03 03:35:39;;;;;;;63.03;33.43;;;;;;;0.35;87.86;101004.59;5072358;28;20384;-84
2021/12/03 03:38:05;;;;;;;60.23;33.80;;;;;;;0.38;87.74;101004.66;5071968;28;20495;-84
2021/12/03 03:40:31;;;;;;;58.77;33.80;;;;;;;0.37;88.27;101008.06;5071891;28;20024;-84
2021/12/03 03:43:02;;;;;;;58.80;32.73;;;;;;;0.41;88.00;101012.41;5070663;28;20020;-84
2021/12/03 03:45:28;;;;;;;54.65;29.55;;;;;;;0.43;88.00;101013.31;5072257;28;20055;-84
2021/12/03 03:47:55;;;;;;;56.77;31.50;;;;;;;0.44;87.95;101019.28;5071923;28;20033;-84
2021/12/03 03:50:21;;;;;;;52.57;29.80;;;;;;;0.43;88.07;101015.88;5072195;28;20023;-84
2021/12/03 03:52:48;;;;;;;50.70;30.63;;;;;;;0.42;87.58;101005.63;5070898;28;20028;-84
2021/12/03 03:55:15;;;;;;;51.97;29.63;;;;;;;0.44;88.05;101004.78;5071478;28;20063;-84
2021/12/03 03:57:41;;;;;;;54.60;29.63;;;;;;;0.45;87.87;101003.97;5071871;28;20017;-83
2021/12/03 04:00:10;;;;;;;59.93;32.30;;;;;;;0.45;87.87;101006.53;5071160;28;20066;-84
2021/12/03 04:02:36;;;;;;;56.00;31.97;;;;;;;0.44;87.77;100994.56;5072725;28;20017;-84
2021/12/03 04:05:02;;;;;;;63.37;31.40;;;;;;;0.45;87.59;100993.72;5070927;28;20031;-84
2021/12/03 04:07:27;;;;;;;65.03;32.97;;;;;;;0.44;88.27;100991.13;5070417;28;20068;-84
2021/12/03 04:09:53;;;;;;;59.03;33.07;;;;;;;0.42;87.69;100991.09;5070732;28;20048;-84
2021/12/03 04:12:19;;;;;;;64.43;34.10;;;;;;;0.41;87.88;100991.94;5071220;28;20032;-84
2021/12/03 04:14:44;;;;;;;65.50;33.00;;;;;;;0.42;88.00;100985.97;5067752;28;20028;-84
2021/12/03 04:17:09;;;;;;;63.30;32.83;;;;;;;0.41;87.98;100974.03;5071408;28;20034;-83
2021/12/03 04:19:36;;;;;;;65.03;33.93;;;;;;;0.43;87.73;100969.78;5071712;28;20383;-84
2021/12/03 04:22:02;;;;;;;62.50;33.30;;;;;;;0.42;87.99;100975.75;5071591;28;20032;-84
2021/12/03 04:24:28;;;;;;;75.57;36.00;;;;;;;0.44;87.72;100981.75;5069417;28;20074;-84
2021/12/03 04:26:53;;;;;;;72.03;34.57;;;;;;;0.45;88.14;100987.72;5073484;28;20056;-84
2021/12/03 04:29:19;;;;;;;78.00;36.73;;;;;;;0.48;88.12;100984.38;5079328;28;20476;-84
2021/12/03 04:31:44;;;;;;;82.43;38.10;;;;;;;0.48;87.77;100984.38;5070369;28;20064;-84
2021/12/03 04:34:09;;;;;;;80.27;37.87;;;;;;;0.45;88.10;100975.81;5074992;28;20070;-84
2021/12/03 04:36:35;;;;;;;77.47;35.63;;;;;;;0.47;88.25;100972.41;5075219;28;20024;-84
2021/12/03 04:39:00;;;;;;;77.50;35.30;;;;;;;0.49;87.98;100975.88;5074232;28;20024;-83
2021/12/03 04:41:26;;;;;;;77.40;37.47;;;;;;;0.50;87.86;100982.72;5073987;28;20493;-84
2021/12/03 04:43:51;;;;;;;76.97;36.30;;;;;;;0.50;87.97;100985.28;5070864;28;20024;-84
2021/12/03 04:46:16;;;;;;;68.37;33.83;;;;;;;0.52;88.14;100981.03;5075217;28;20456;-84
2021/12/03 04:48:42;;;;;;;69.83;33.33;;;;;;;0.53;88.19;100982.75;5071688;28;20028;-84
2021/12/03 04:51:07;;;;;;;67.57;32.47;;;;;;;0.54;88.03;100979.34;5071488;28;20383;-84
2021/12/03 04:53:33;;;;;;;62.77;31.70;;;;;;;0.55;88.04;100988.75;5069794;28;20037;-84
2021/12/03 04:55:58;;;;;;;57.53;30.43;;;;;;;0.57;88.05;100993.09;5070352;28;20459;-84
2021/12/03 04:58:23;;;;;;;62.13;32.03;;;;;;;0.59;88.01;100982.88;5070657;28;20089;-84
2021/12/03 05:00:56;;;;;;;61.13;31.77;;;;;;;0.61;88.10;100976.06;5070319;28;20062;-84
2021/12/03 05:03:24;;;;;;;61.53;30.17;;;;;;;0.60;88.08;100980.31;5071418;28;20013;-84
2021/12/03 05:05:54;;;;;;;61.63;32.17;;;;;;;0.59;88.19;100977.75;5075122;28;20020;-84
2021/12/03 05:08:20;;;;;;;62.67;32.03;;;;;;;0.63;88.24;100969.28;5071190;28;20041;-84
2021/12/03 05:10:47;;;;;;;59.03;32.00;;;;;;;0.63;88.27;100971.84;5070318;28;20055;-84
2021/12/03 05:13:21;;;;;;;62.97;31.57;;;;;;;0.64;88.65;100959.91;5081775;28;20035;-84
2021/12/03 05:15:47;;;;;;;58.20;31.20;;;;;;;0.65;88.50;100954.81;5084568;28;20097;-84
2021/12/03 05:18:15;;;;;;;57.10;31.70;;;;;;;0.66;88.12;100953.09;5078527;28;20133;-84
2021/12/03 05:20:42;;;;;;;60.30;31.60;;;;;;;0.67;88.32;100944.59;5071236;28;20064;-84
2021/12/03 05:23:07;;;;;;;55.10;32.20;;;;;;;0.66;88.37;100946.31;5076820;28;20070;-83
2021/12/03 05:25:35;;;;;;;61.93;31.70;;;;;;;0.66;88.44;100947.97;5075043;28;20024;-83
2021/12/03 05:28:01;;;;;;;56.40;32.53;;;;;;;0.67;88.02;100950.59;5079335;28;20023;-84
2021/12/03 05:30:26;;;;;;;54.33;30.67;;;;;;;0.66;88.34;100946.31;5076356;28;20035;-83
2021/12/03 05:32:52;;;;;;;54.40;31.20;;;;;;;0.66;87.98;100943.75;5076874;28;20440;-84
2021/12/03 05:35:19;;;;;;;55.07;29.27;;;;;;;0.66;88.12;100953.09;5077515;28;20032;-84
2021/12/03 05:37:44;;;;;;;49.50;30.70;;;;;;;0.65;87.88;100947.13;5072273;28;20028;-84
2021/12/03 05:40:12;;;;;;;51.00;27.93;;;;;;;0.68;87.95;100952.31;5070650;28;20027;-84
2021/12/03 05:42:38;;;;;;;50.00;28.60;;;;;;;0.67;88.34;100945.47;5069806;28;20024;-84
2021/12/03 05:45:06;;;;;;;43.93;27.27;;;;;;;0.68;87.82;100961.69;5075537;28;20020;-84
2021/12/03 05:47:31;;;;;;;47.70;26.80;;;;;;;0.69;88.23;100948.03;5068064;28;20021;-84
2021/12/03 05:49:56;;;;;;;43.53;25.50;;;;;;;0.67;87.84;100948.03;5070341;28;20030;-83
2021/12/03 05:52:22;;;;;;;39.83;22.43;;;;;;;0.70;87.82;100955.72;5069934;28;20416;-84
2021/12/03 05:54:47;;;;;;;41.30;22.53;;;;;;;0.69;87.86;100943.75;5070512;28;20498;-84
2021/12/03 05:57:12;;;;;;;32.70;18.83;;;;;;;0.71;87.87;100949.78;5070848;28;20032;-84
2021/12/03 05:59:38;;;;;;;35.07;20.03;;;;;;;0.71;87.61;100956.63;5074191;28;20471;-84
2021/12/03 06:02:03;;;;;;;32.97;18.47;;;;;;;0.75;87.74;100954.13;5074371;28;20024;-84
2021/12/03 06:04:29;;;;;;;34.63;18.00;;;;;;;0.74;87.69;100952.41;5078513;28;20115;-84
2021/12/03 06:06:55;;;;;;;29.80;18.30;;;;;;;0.74;87.25;100957.53;5075313;28;20020;-84
2021/12/03 06:09:21;;;;;;;33.67;16.63;;;;;;;0.74;87.21;100960.06;5067605;28;20123;-83
2021/12/03 06:11:46;;;;;;;30.60;15.87;;;;;;;0.75;87.06;100963.53;5068042;28;20467;-84
2021/12/03 06:14:12;;;;;;;27.13;14.77;;;;;;;0.74;87.26;100965.19;5068894;28;20031;-84
2021/12/03 06:16:37;;;;;;;28.27;15.47;;;;;;;0.73;87.35;100960.91;5069517;28;20028;-84
2021/12/03 06:19:03;;;;;;;25.57;14.07;;;;;;;0.75;87.06;100953.28;5069659;28;20096;-84
2021/12/03 06:21:28;;;;;;;28.20;14.03;;;;;;;0.74;87.14;100957.53;5067861;28;20055;-84
2021/12/03 06:23:53;;;;;;;27.43;13.63;;;;;;;0.74;86.83;100946.44;5070116;28;20024;-84
2021/12/03 06:26:19;;;;;;;23.53;13.43;;;;;;;0.75;86.80;100943.03;5069643;28;20354;-84
2021/12/03 06:28:44;;;;;;;31.30;13.23;;;;;;;0.74;86.51;100952.41;5070476;28;20471;-84
2021/12/03 06:31:09;;;;;;;24.57;12.83;;;;;;;0.75;86.87;100948.16;5069801;28;20040;-84
2021/12/03 06:33:35;;;;;;;24.73;12.23;;;;;;;0.75;86.81;100949.00;5069680;28;20130;-84
2021/12/03 06:36:00;;;;;;;25.50;12.53;;;;;;;0.75;86.63;100943.88;5067688;28;20030;-84
2021/12/03 06:38:26;;;;;;;28.93;12.20;;;;;;;0.75;86.45;100938.75;5070453;28;20093;-84
2021/12/03 06:40:52;;;;;;;21.43;11.83;;;;;;;0.74;86.09;100938.75;5067718;28;20035;-84
2021/12/03 06:43:18;;;;;;;27.50;11.33;;;;;;;0.77;86.02;100945.59;5068941;28;20388;-84
2021/12/03 06:45:45;;;;;;;21.87;10.53;;;;;;;0.75;85.93;100932.78;5069310;28;20475;-84
2021/12/03 06:48:10;;;;;;;23.80;10.50;;;;;;;0.75;85.79;100933.63;5071653;28;20028;-84
2021/12/03 06:50:37;;;;;;;21.63;10.30;;;;;;;0.75;85.15;100938.75;5071172;28;20024;-84
2021/12/03 06:53:05;;;;;;;19.17;9.27;;;;;;;0.74;84.88;100939.59;5073121;28;20104;-84
2021/12/03 06:55:45;;;;;;;23.20;9.63;;;;;;;0.75;84.77;100937.91;5070819;28;20107;-84
2021/12/03 06:58:10;;;;;;;19.43;9.57;;;;;;;0.71;84.18;100936.13;5073243;28;20016;-84
2021/12/03 07:00:36;;;;;;;21.07;9.30;;;;;;;0.72;84.02;100938.69;5071227;28;20027;-84
2021/12/03 07:03:01;;;;;;;22.63;9.20;;;;;;;0.74;83.55;100934.47;5071660;28;20033;-84
2021/12/03 07:05:27;;;;;;;22.87;9.27;;;;;;;0.73;83.33;100940.44;5072015;28;20107;-84
2021/12/03 07:07:52;;;;;;;20.60;8.50;;;;;;;0.73;83.07;100940.44;5071924;28;20519;-84
2021/12/03 07:10:17;;;;;;;22.43;8.60;;;;;;;0.72;82.68;100935.28;5072532;28;20033;-84
2021/12/03 07:12:43;;;;;;;22.77;9.07;;;;;;;0.72;82.34;100938.69;5073798;28;20055;-84
2021/12/03 07:15:08;;;;;;;24.70;8.77;;;;;;;0.70;82.66;100936.97;5070652;28;20052;-84
2021/12/03 07:17:34;;;;;;;19.17;8.10;;;;;;;0.70;82.20;100935.25;5073455;28;20033;-84
2021/12/03 07:20:00;;;;;;;19.77;8.27;;;;;;;0.70;82.27;100930.13;5072352;28;20020;-84
2021/12/03 07:22:29;;;;;;;25.43;8.57;;;;;;;0.71;82.01;100928.44;5072490;28;20031;-84
2021/12/03 07:24:55;;;;;;;19.77;8.23;;;;;;;0.71;82.08;100926.72;5070067;28;20471;-84
2021/12/03 07:27:21;;;;;;;21.87;8.33;;;;;;;0.70;81.92;100922.44;5071176;28;20161;-84
2021/12/03 07:29:48;;;;;;;19.57;7.67;;;;;;;0.70;81.95;100930.13;5071033;28;20055;-84
2021/12/03 07:32:18;;;;;;;22.83;8.20;;;;;;;0.71;81.84;100916.50;5073197;28;20020;-84
2021/12/03 07:34:44;;;;;;;24.40;8.33;;;;;;;0.72;81.63;100914.81;5070875;28;20024;-84
2021/12/03 07:37:10;;;;;;;19.00;7.83;;;;;;;0.70;81.28;100917.31;5071993;28;20039;-84
2021/12/03 07:39:36;;;;;;;22.40;8.00;;;;;;;0.72;81.33;100918.22;5072133;28;20032;-85
2021/12/03 07:42:02;;;;;;;24.80;8.13;;;;;;;0.72;81.66;100928.47;5071619;28;20069;-84
2021/12/03 07:44:27;;;;;;;21.47;8.13;;;;;;;0.71;81.61;100921.63;5071639;28;20025;-84
2021/12/03 07:46:53;;;;;;;21.60;8.47;;;;;;;0.72;81.46;100925.91;5068886;28;20029;-84
2021/12/03 07:49:19;;;;;;;21.07;7.53;;;;;;;0.73;81.51;100924.22;5068967;28;20032;-84
2021/12/03 07:51:45;;;;;;;20.83;7.23;;;;;;;0.74;81.40;100921.66;5073684;28;20024;-84
2021/12/03 07:54:10;;;;;;;20.67;7.37;;;;;;;0.77;81.53;100930.25;5072151;28;20041;-86
2021/12/03 07:56:35;;;;;;;16.93;7.10;;;;;;;0.80;80.97;100936.25;5077367;28;20030;-84
2021/12/03 07:59:00;;;;;;;22.90;7.30;;;;;;;0.80;80.94;100922.63;5076320;28;20077;-84
2021/12/03 08:01:26;;;;;;;20.63;7.33;;;;;;;0.82;81.22;100920.94;5076405;28;20074;-84
2021/12/03 08:03:51;;;;;;;21.50;7.33;;;;;;;0.85;81.00;100928.69;5078486;28;20037;-84
2021/12/03 08:06:17;;;;;;;23.40;7.70;;;;;;;0.85;80.88;100934.66;5081107;28;20498;-85
2021/12/03 08:08:42;;;;;;;22.60;6.53;;;;;;;0.85;81.53;100923.56;5076658;28;20052;-84
2021/12/03 08:11:08;;;;;;;23.17;7.10;;;;;;;0.87;80.79;100921.84;5077574;28;20085;-85
2021/12/03 08:13:34;;;;;;;22.37;7.20;;;;;;;0.88;81.10;100918.44;5079523;28;20498;-84
2021/12/03 08:16:00;;;;;;;21.70;6.77;;;;;;;0.87;80.93;100906.47;5077793;28;20024;-86
2021/12/03 08:18:26;;;;;;;20.60;6.30;;;;;;;0.90;81.57;100914.22;5077428;28;20028;-85
2021/12/03 08:20:52;;;;;;;23.97;7.00;;;;;;;0.92;81.35;100915.09;5079971;28;20028;-85
2021/12/03 08:23:18;;;;;;;26.33;6.93;;;;;;;0.93;81.33;100916.00;5078119;28;20050;-85
2021/12/03 08:25:44;;;;;;;25.60;6.60;;;;;;;0.96;80.95;100916.88;5072698;28;20814;-85
2021/12/03 08:28:09;;;;;;;17.70;5.93;;;;;;;1.01;80.73;100912.69;5080249;28;20534;-85
2021/12/03 08:30:35;;;;;;;21.33;6.60;;;;;;;1.02;80.67;100901.63;5077510;28;20284;-85
2021/12/03 08:33:00;;;;;;;24.37;5.90;;;;;;;1.04;80.85;100915.28;5077206;28;20039;-84
2021/12/03 08:35:25;;;;;;;23.90;6.40;;;;;;;1.07;80.38;100909.38;5076070;28;20086;-84
2021/12/03 08:37:51;;;;;;;20.37;5.37;;;;;;;1.11;80.45;100916.22;5077531;28;20055;-84
2021/12/03 08:40:19;;;;;;;20.57;5.37;;;;;;;1.10;80.21;100913.66;5075460;28;20478;-84
2021/12/03 08:42:45;;;;;;;20.67;6.03;;;;;;;1.13;80.53;100906.03;5067978;28;20422;-84
2021/12/03 08:45:15;;;;;;;19.67;5.70;;;;;;;1.15;80.13;100906.91;5073578;28;20032;-83
2021/12/03 08:47:41;;;;;;;20.27;6.10;;;;;;;1.18;80.77;100891.59;5075566;28;20035;-84
2021/12/03 08:50:13;;;;;;;21.87;5.53;;;;;;;1.21;80.37;100897.59;5075843;28;20059;-84
2021/12/03 08:55:40;;;;;;;19.80;5.40;;;;;;;1.26;79.89;100905.34;5037810;28;19920;-84
2021/12/03 08:58:06;;;;;;;21.10;5.30;;;;;;;1.28;80.19;100906.22;5069594;28;20231;-84
2021/12/03 09:00:33;;;;;;;22.80;6.03;;;;;;;1.31;79.70;100908.84;5078538;28;20236;-85
2021/12/03 09:02:59;;;;;;;21.67;5.30;;;;;;;1.31;79.73;100907.97;5074831;28;20024;-84
2021/12/03 09:05:29;;;;;;;22.57;6.07;;;;;;;1.32;79.84;100900.31;5073858;28;20028;-84
2021/12/03 09:07:54;;;;;;;18.30;5.27;;;;;;;1.34;79.72;100901.19;5079380;28;20049;-84
2021/12/03 09:10:20;;;;;;;20.13;5.37;;;;;;;1.35;78.98;100896.91;5076597;28;20047;-84
2021/12/03 09:12:45;;;;;;;20.73;5.47;;;;;;;1.38;79.01;100902.09;5076869;28;20020;-84
2021/12/03 09:15:15;;;;;;;19.60;5.70;;;;;;;1.42;79.03;100895.28;5077038;28;20432;-85
2021/12/03 09:18:29;;;;;;;19.73;5.50;;;;;;;1.44;79.31;100894.50;5074888;28;20279;-85
2021/12/03 09:23:15;;;;;;;24.30;5.80;;;;;;;1.51;79.33;100883.44;5070690;28;20409;-83
2021/12/03 09:25:48;;;;;;;22.20;5.97;;;;;;;1.57;79.71;100874.13;5073713;28;20031;-83
2021/12/03 09:28:14;;;;;;;18.40;6.20;;;;;;;1.60;79.48;100881.84;5073372;28;20028;-84
2021/12/03 09:30:41;;;;;;;23.80;5.93;;;;;;;1.62;80.03;100875.88;5077218;28;20419;-85
2021/12/03 09:33:10;;;;;;;19.50;6.37;;;;;;;1.63;79.44;100879.31;5073917;28;20066;-85
2021/12/03 09:35:41;;;;;;;22.80;6.57;;;;;;;1.64;79.38;100884.47;5072715;28;20020;-84
2021/12/03 09:38:06;;;;;;;24.23;6.30;;;;;;;1.65;79.34;100887.88;5074027;28;20029;-85
2021/12/03 09:40:35;;;;;;;19.60;6.20;;;;;;;1.65;79.57;100899.00;5074972;28;20293;-84
2021/12/03 09:43:00;;;;;;;24.23;6.23;;;;;;;1.65;79.49;100883.63;5075054;28;20026;-84
2021/12/03 09:45:26;;;;;;;21.83;6.40;;;;;;;1.66;79.73;100887.03;5076135;28;20031;-84
2021/12/03 09:47:53;;;;;;;17.43;5.80;;;;;;;1.72;79.33;100879.41;5076028;28;20518;-85
2021/12/03 09:50:18;;;;;;;21.97;6.37;;;;;;;1.71;79.49;100875.13;5072705;28;20108;-84
2021/12/03 09:52:58;;;;;;;22.43;6.27;;;;;;;1.72;79.87;100868.28;5074930;28;20398;-84
2021/12/03 09:55:24;;;;;;;20.07;6.33;;;;;;;1.72;79.94;100858.91;5073690;28;20032;-83
2021/12/03 10:06:32;;;;;;;17.40;5.53;;;;;;;1.76;80.24;100842.72;5077474;28;20503;-84
2021/12/03 10:22:10;;;;;;;17.53;5.70;;;;;;;1.87;80.86;100819.75;5079874;28;20085;-84
2021/12/03 10:30:59;;;;;;;16.13;5.50;;;;;;;1.95;81.18;100815.53;5083751;28;20116;-84
2021/12/03 10:37:07;;;;;;;17.20;6.23;;;;;;;1.96;81.38;100781.31;5070486;28;20043;-85
2021/12/03 10:39:33;;;;;;;15.98;5.80;;;;;;;2.00;81.33;100783.94;5071353;28;20035;-84
2021/12/03 10:47:21;;;;;;;18.20;6.40;;;;;;;2.04;81.23;100763.44;5080726;28;20376;-85
2021/12/03 11:04:34;;;;;;;21.73;6.77;;;;;;;2.16;81.47;100734.44;5076768;28;20032;-85
2021/12/03 11:06:43;;;;;;;20.07;7.43;;;;;;;2.21;81.31;100729.34;5079716;28;20093;-85
2021/12/03 11:20:07;;;;;;;;;;;;;;;2.48;81.46;100723.50;5073152;28;20040;-85
2021/12/03 11:44:43;;;;;;;16.57;6.70;;;;;;;2.68;79.67;100648.28;5070667;28;20035;-84
2021/12/03 12:15:23;;;;;;;17.80;5.97;;;;;;;3.06;77.63;100596.13;5075589;28;20111;-86
2021/12/03 12:57:47;;;;;;;12.97;4.40;;;;;;;3.36;74.20;100548.16;5074374;28;20050;-86
2021/12/03 13:34:03;;;;;;;9.33;4.07;;;;;;;3.40;73.35;100484.69;5078894;28;20036;-84
2021/12/03 14:00:38;;;;;;;8.70;4.05;;;;;;;3.13;77.29;100451.31;5079556;28;20032;-86
2021/12/03 14:04:01;;;;;;;10.30;4.37;;;;;;;3.12;77.53;100466.75;5076629;28;20035;-86
2021/12/03 14:15:02;;;;;;;10.85;4.10;;;;;;;3.03;78.30;100463.31;5075584;28;20040;-85
2021/12/03 14:27:05;;;;;;;8.70;4.37;;;;;;;2.94;79.70;100439.34;5075961;28;20128;-84
2021/12/03 14:34:47;;;;;;;9.20;4.10;;;;;;;2.85;80.28;100451.34;5077849;28;20033;-85
2021/12/03 14:39:42;;;;;;;8.97;4.07;;;;;;;2.86;80.22;100450.50;5074643;28;20116;-86
2021/12/03 14:41:38;;;;;;;11.60;4.73;;;;;;;2.86;80.88;100452.19;5068046;28;20055;-84
2021/12/03 14:44:22;;;;;;;10.10;4.73;;;;;;;2.86;80.45;100449.63;5076216;28;20024;-84
2021/12/03 14:53:13;;;;;;;9.13;4.73;;;;;;;2.92;80.58;100461.63;5073576;28;20400;-85
2021/12/03 14:55:39;;;;;;;8.47;4.50;;;;;;;2.90;80.15;100463.34;5072030;28;20077;-85
2021/12/03 14:58:10;;;;;;;10.30;4.70;;;;;;;2.89;80.35;100457.34;5075820;28;20027;-84
2021/12/03 15:03:34;;;;;;;8.15;4.90;;;;;;;2.86;81.13;100465.91;5075071;28;20040;-85
2021/12/03 15:08:41;;;;;;;11.57;5.50;;;;;;;2.84;81.46;100448.78;5072554;28;20052;-84
2021/12/03 15:24:57;;;;;;;10.17;5.50;;;;;;;2.83;82.66;100447.94;5063306;28;20051;-84
2021/12/03 15:33:05;;;;;;;8.20;5.33;;;;;;;2.80;83.49;100436.81;5065328;28;20521;-85
2021/12/03 16:08:21;;;;;;;7.33;4.67;;;;;;;2.68;86.80;100392.28;5076134;28;20097;-86
2021/12/03 16:16:25;;;;;;;8.17;5.10;;;;;;;2.66;87.04;100378.56;5065588;28;20033;-84
2021/12/03 16:27:19;;;;;;;7.37;4.90;;;;;;;2.65;87.66;100368.31;5074247;28;20498;-85
2021/12/03 16:43:45;;;;;;;7.60;5.53;;;;;;;2.65;88.23;100355.47;5077359;28;20035;-84
2021/12/03 16:46:25;;;;;;;7.10;5.70;;;;;;;2.65;88.05;100358.03;5079742;28;20028;-84
2021/12/03 16:51:30;;;;;;;7.53;5.60;;;;;;;2.64;88.27;100358.88;5075859;28;20040;-85
2021/12/03 16:54:04;;;;;;;7.87;5.67;;;;;;;2.65;88.21;100350.34;5078375;28;20028;-85